createdAt,value
2019-03-06T00:02:20.480Z,15.30
2019-03-06T00:04:50.423Z,14.57
2019-03-06T00:07:21.389Z,14.70
2019-03-06T00:09:51.751Z,13.20
2019-03-06T00:12:24.027Z,12.93
2019-03-06T00:14:54.986Z,13.47
2019-03-06T00:17:24.947Z,12.10
2019-03-06T00:19:57.371Z,12.13
2019-03-06T00:22:26.958Z,10.93
2019-03-06T00:24:56.886Z,10.77
2019-03-06T00:27:26.755Z,9.87
2019-03-06T00:29:56.599Z,9.33
2019-03-06T00:32:26.483Z,8.83
2019-03-06T00:34:58.888Z,7.53
2019-03-06T00:37:28.086Z,8.60
2019-03-06T00:39:59.546Z,7.97
2019-03-06T00:42:30.481Z,8.47
2019-03-06T00:45:01.386Z,8.77
2019-03-06T00:47:34.175Z,8.10
2019-03-06T00:50:04.126Z,9.47
2019-03-06T00:52:36.551Z,10.13
2019-03-06T00:55:09.335Z,11.00
2019-03-06T00:57:40.734Z,10.32
2019-03-06T01:00:12.590Z,11.40
2019-03-06T01:02:42.468Z,11.40
2019-03-06T01:05:15.161Z,11.37
2019-03-06T01:07:47.535Z,14.60
2019-03-06T01:10:19.614Z,14.27
2019-03-06T01:12:49.523Z,15.73
2019-03-06T01:15:20.040Z,16.17
2019-03-06T01:17:50.795Z,16.60
2019-03-06T01:20:21.720Z,17.47
2019-03-06T01:22:52.860Z,17.80
2019-03-06T01:25:23.784Z,17.92
2019-03-06T01:27:53.540Z,17.90
2019-03-06T01:30:33.458Z,18.12
2019-03-06T01:33:14.654Z,19.00
2019-03-06T01:35:54.658Z,18.33
2019-03-06T01:38:29.051Z,18.87
2019-03-06T01:41:17.907Z,18.87
2019-03-06T01:43:50.615Z,19.37
2019-03-06T01:46:24.711Z,18.40
2019-03-06T01:48:55.754Z,19.07
2019-03-06T01:51:27.658Z,19.47
2019-03-06T01:54:01.053Z,19.10
2019-03-06T01:56:33.296Z,18.63
2019-03-06T01:59:03.144Z,18.87
2019-03-06T02:01:33.106Z,18.30
2019-03-06T02:04:05.771Z,18.67
2019-03-06T02:06:35.585Z,18.27
2019-03-06T02:09:09.137Z,18.07
2019-03-06T02:11:42.459Z,19.03
2019-03-06T02:14:13.593Z,19.17
2019-03-06T02:16:45.936Z,18.07
2019-03-06T02:19:15.875Z,19.43
2019-03-06T02:21:44.944Z,18.20
2019-03-06T02:24:15.923Z,18.70
2019-03-06T02:26:50.122Z,18.20
2019-03-06T02:29:19.903Z,18.53
2019-03-06T02:31:49.223Z,18.10
2019-03-06T02:34:21.567Z,18.07
2019-03-06T02:36:53.055Z,18.93
2019-03-06T02:39:23.045Z,17.48
2019-03-06T02:41:54.454Z,19.37
2019-03-06T02:44:24.515Z,18.33
2019-03-06T02:46:55.872Z,17.73
2019-03-06T02:49:26.842Z,18.30
2019-03-06T02:51:58.166Z,17.70
2019-03-06T02:54:29.113Z,18.37
2019-03-06T02:56:59.457Z,18.43
2019-03-06T02:59:34.024Z,18.33
2019-03-06T03:02:07.960Z,17.30
2019-03-06T03:04:42.177Z,18.03
2019-03-06T03:07:14.200Z,18.70
2019-03-06T03:09:43.488Z,17.83
2019-03-06T03:12:14.566Z,17.93
2019-03-06T03:14:45.608Z,17.77
2019-03-06T03:17:16.528Z,17.73
2019-03-06T03:19:48.919Z,19.37
2019-03-06T03:22:21.941Z,19.07
2019-03-06T03:24:54.107Z,18.87
2019-03-06T03:27:25.086Z,17.90
2019-03-06T03:29:55.907Z,17.70
2019-03-06T03:32:25.794Z,17.93
2019-03-06T03:35:00.677Z,18.03
2019-03-06T03:37:33.333Z,18.57
2019-03-06T03:40:04.326Z,17.17
2019-03-06T03:42:34.409Z,18.87
2019-03-06T03:45:04.830Z,18.20
2019-03-06T03:47:34.798Z,19.33
2019-03-06T03:50:06.695Z,18.47
2019-03-06T03:52:37.783Z,18.93
2019-03-06T03:55:17.219Z,18.87
2019-03-06T03:57:48.267Z,19.10
2019-03-06T04:00:23.696Z,18.60
2019-03-06T04:02:53.247Z,19.03
2019-03-06T04:05:25.690Z,18.37
2019-03-06T04:07:55.704Z,19.23
2019-03-06T04:10:26.250Z,19.07
2019-03-06T04:12:57.319Z,20.67
2019-03-06T04:15:27.296Z,19.80
2019-03-06T04:17:58.564Z,20.67
2019-03-06T04:20:28.428Z,21.37
2019-03-06T04:22:59.431Z,21.47
2019-03-06T04:25:29.368Z,20.80
2019-03-06T04:27:59.207Z,22.07
2019-03-06T04:30:28.450Z,23.37
2019-03-06T04:33:01.430Z,22.87
2019-03-06T04:35:31.267Z,22.30
2019-03-06T04:38:04.531Z,23.30
2019-03-06T04:40:35.686Z,22.97
2019-03-06T04:43:08.595Z,22.13
2019-03-06T04:45:39.486Z,22.77
2019-03-06T04:48:29.757Z,23.70
2019-03-06T04:50:59.785Z,23.40
2019-03-06T04:56:00.502Z,23.10
2019-03-06T04:58:30.437Z,20.70
2019-03-06T05:01:00.339Z,23.50
2019-03-06T05:03:31.219Z,24.13
2019-03-06T05:06:02.050Z,25.73
2019-03-06T05:08:32.145Z,23.33
2019-03-06T05:11:01.462Z,23.53
2019-03-06T05:13:33.803Z,25.17
2019-03-06T05:16:04.893Z,24.10
2019-03-06T05:18:36.324Z,26.20
2019-03-06T05:21:07.210Z,24.30
2019-03-06T05:23:38.188Z,23.73
2019-03-06T05:26:09.220Z,23.40
2019-03-06T05:28:40.289Z,22.97
2019-03-06T05:31:09.934Z,23.87
2019-03-06T05:33:39.746Z,24.73
2019-03-06T05:36:22.851Z,23.13
2019-03-06T05:39:07.126Z,23.30
2019-03-06T05:41:40.022Z,22.73
2019-03-06T05:44:09.874Z,23.03
2019-03-06T05:46:39.785Z,23.23
2019-03-06T05:49:13.021Z,23.50
2019-03-06T05:51:44.371Z,22.87
2019-03-06T05:54:15.359Z,23.87
2019-03-06T05:56:45.313Z,24.77
2019-03-06T05:59:16.099Z,23.97
2019-03-06T06:01:46.958Z,23.30
2019-03-06T06:04:17.938Z,24.98
2019-03-06T06:06:47.918Z,24.90
2019-03-06T06:09:17.327Z,24.00
2019-03-06T06:11:47.251Z,24.27
2019-03-06T06:14:18.359Z,24.97
2019-03-06T06:16:49.323Z,24.57
2019-03-06T06:19:20.143Z,24.57
2019-03-06T06:21:57.640Z,26.93
2019-03-06T06:24:28.434Z,25.53
2019-03-06T06:27:00.858Z,26.00
2019-03-06T06:29:33.079Z,25.97
2019-03-06T06:32:03.062Z,25.37
2019-03-06T06:34:32.858Z,24.83
2019-03-06T06:37:05.315Z,25.77
2019-03-06T06:39:38.496Z,25.47
2019-03-06T06:42:09.500Z,24.47
2019-03-06T06:44:40.979Z,26.83
2019-03-06T06:47:11.938Z,24.87
2019-03-06T06:49:46.103Z,22.93
2019-03-06T06:52:21.778Z,22.13
2019-03-06T06:55:16.026Z,24.67
2019-03-06T06:57:52.620Z,22.27
2019-03-06T07:00:56.970Z,23.20
2019-03-06T07:03:41.382Z,20.67
2019-03-06T07:06:13.955Z,19.93
2019-03-06T07:08:49.340Z,19.60
2019-03-06T07:11:20.822Z,19.83
2019-03-06T07:13:58.532Z,18.47
2019-03-06T07:16:46.426Z,18.00
2019-03-06T07:19:17.843Z,17.37
2019-03-06T07:21:54.361Z,17.03
2019-03-06T07:24:31.992Z,17.17
2019-03-06T07:27:15.709Z,17.20
2019-03-06T07:29:54.331Z,16.70
2019-03-06T07:32:25.774Z,16.03
2019-03-06T07:35:48.865Z,15.07
2019-03-06T07:38:19.827Z,15.17
2019-03-06T07:40:57.120Z,15.57
2019-03-06T07:43:45.563Z,15.73
2019-03-06T07:46:33.394Z,16.00
2019-03-06T07:49:21.976Z,14.53
2019-03-06T07:52:03.963Z,14.57
2019-03-06T07:54:53.606Z,14.87
2019-03-06T07:57:24.499Z,19.00
2019-03-06T07:59:56.631Z,16.03
2019-03-06T08:02:32.390Z,16.15
2019-03-06T08:05:01.623Z,15.13
2019-03-06T08:07:34.031Z,13.27
2019-03-06T08:10:12.887Z,14.33
2019-03-06T08:12:43.704Z,14.23
2019-03-06T08:15:17.902Z,13.40
2019-03-06T08:17:53.355Z,12.03
2019-03-06T08:20:28.591Z,12.40
2019-03-06T08:23:16.163Z,11.80
2019-03-06T08:25:45.220Z,11.63
2019-03-06T08:28:16.380Z,11.20
2019-03-06T08:30:53.946Z,12.43
2019-03-06T08:33:23.902Z,11.90
2019-03-06T08:35:53.847Z,12.97
2019-03-06T08:38:26.145Z,11.50
2019-03-06T08:41:03.843Z,11.73
2019-03-06T08:43:27.602Z,12.30
2019-03-06T08:45:59.164Z,10.67
2019-03-06T08:48:48.591Z,11.40
2019-03-06T08:51:25.742Z,10.35
2019-03-06T08:54:03.001Z,10.87
2019-03-06T08:56:40.332Z,11.63
2019-03-06T08:59:21.906Z,10.60
2019-03-06T09:02:01.249Z,11.80
2019-03-06T09:04:33.995Z,11.07
2019-03-06T09:07:11.446Z,10.53
2019-03-06T09:09:47.003Z,11.40
2019-03-06T09:12:34.296Z,10.60
2019-03-06T09:15:08.098Z,9.63
2019-03-06T09:17:39.693Z,11.10
2019-03-06T09:20:23.794Z,11.10
2019-03-06T09:22:59.331Z,10.70
2019-03-06T09:25:30.770Z,10.57
2019-03-06T09:28:03.224Z,11.60
2019-03-06T09:30:37.889Z,11.80
2019-03-06T09:33:12.571Z,10.07
2019-03-06T09:35:58.999Z,20.57
2019-03-06T09:38:46.293Z,12.00
2019-03-06T09:41:27.563Z,10.93
2019-03-06T09:44:00.078Z,17.80
2019-03-06T09:46:38.169Z,10.00
2019-03-06T09:49:28.791Z,9.53
2019-03-06T09:52:00.767Z,11.17
2019-03-06T09:54:45.437Z,9.63
2019-03-06T09:57:17.940Z,10.30
2019-03-06T09:59:52.280Z,9.60
2019-03-06T10:02:33.658Z,8.83
2019-03-06T10:05:05.935Z,8.30
2019-03-06T10:07:54.893Z,8.33
2019-03-06T10:10:46.028Z,8.47
2019-03-06T10:13:21.376Z,10.33
2019-03-06T10:15:52.874Z,10.43
2019-03-06T10:18:26.854Z,11.37
2019-03-06T10:20:56.274Z,8.40
2019-03-06T10:23:27.117Z,9.37
2019-03-06T10:25:57.194Z,10.77
2019-03-06T10:28:28.195Z,7.30
2019-03-06T10:31:02.673Z,8.23
2019-03-06T10:33:31.126Z,7.03
2019-03-06T10:36:01.457Z,8.00
2019-03-06T10:38:31.462Z,9.40
2019-03-06T10:41:02.492Z,7.20
2019-03-06T10:43:33.498Z,8.87
2019-03-06T10:46:04.270Z,8.07
2019-03-06T10:48:34.295Z,10.23
2019-03-06T10:51:06.841Z,8.17
2019-03-06T10:56:10.448Z,8.83
2019-03-06T10:58:40.191Z,18.27
2019-03-06T11:01:11.599Z,7.37
2019-03-06T11:03:43.947Z,20.17
2019-03-06T11:06:14.919Z,8.70
2019-03-06T11:08:45.749Z,6.50
2019-03-06T11:11:17.166Z,7.25
2019-03-06T11:13:48.198Z,5.87
2019-03-06T11:16:18.112Z,6.57
2019-03-06T11:18:49.191Z,5.63
2019-03-06T11:21:20.946Z,17.17
2019-03-06T11:23:52.009Z,8.40
2019-03-06T11:26:22.714Z,6.70
2019-03-06T11:28:53.874Z,5.30
2019-03-06T11:31:23.359Z,5.25
2019-03-06T11:33:52.747Z,8.30
2019-03-06T11:36:23.677Z,6.30
2019-03-06T11:38:54.669Z,10.40
2019-03-06T11:41:24.653Z,6.43
2019-03-06T11:43:55.076Z,7.33
2019-03-06T11:46:25.063Z,6.30
2019-03-06T11:48:56.289Z,7.93
2019-03-06T11:51:26.964Z,9.63
2019-03-06T11:53:58.179Z,8.63
2019-03-06T11:56:29.720Z,9.33
2019-03-06T11:58:59.634Z,7.93
2019-03-06T12:01:32.524Z,7.03
2019-03-06T12:04:03.514Z,10.80
2019-03-06T12:06:33.367Z,16.67
2019-03-06T12:09:04.547Z,7.20
2019-03-06T12:11:35.803Z,9.17
2019-03-06T12:14:10.435Z,8.43
2019-03-06T12:16:43.773Z,8.77
2019-03-06T12:19:15.276Z,7.53
2019-03-06T12:21:45.263Z,9.40
2019-03-06T12:24:16.459Z,10.78
2019-03-06T12:26:46.259Z,9.63
2019-03-06T12:29:15.540Z,7.75
2019-03-06T12:31:46.837Z,13.90
2019-03-06T12:34:16.856Z,11.47
2019-03-06T12:36:48.159Z,8.83
2019-03-06T12:39:19.168Z,6.90
2019-03-06T12:41:49.898Z,5.67
2019-03-06T12:44:21.123Z,6.00
2019-03-06T12:46:52.059Z,7.50
2019-03-06T12:49:23.100Z,7.63
2019-03-06T12:51:54.602Z,4.87
2019-03-06T12:54:25.893Z,6.73
2019-03-06T12:56:55.975Z,5.77
2019-03-06T12:59:26.931Z,5.83
2019-03-06T13:01:59.410Z,6.10
2019-03-06T13:04:53.282Z,6.57
2019-03-06T13:07:23.667Z,12.47
2019-03-06T13:09:54.655Z,5.67
2019-03-06T13:12:25.928Z,20.30
2019-03-06T13:14:58.628Z,16.03
2019-03-06T13:17:31.661Z,10.90
2019-03-06T13:20:01.431Z,12.57
2019-03-06T13:22:32.323Z,8.50
2019-03-06T13:25:03.320Z,11.23
2019-03-06T13:27:34.233Z,10.33
2019-03-06T13:30:04.519Z,11.97
2019-03-06T13:32:35.286Z,7.37
2019-03-06T13:35:07.351Z,9.07
2019-03-06T13:37:37.419Z,7.37
2019-03-06T13:40:08.099Z,6.57
2019-03-06T13:42:37.979Z,6.70
2019-03-06T13:45:10.159Z,7.10
2019-03-06T13:47:40.211Z,5.77
2019-03-06T13:50:12.243Z,5.87
2019-03-06T13:52:42.182Z,6.67
2019-03-06T13:55:13.513Z,6.87
2019-03-06T13:57:44.460Z,7.40
2019-03-06T14:00:18.299Z,6.97
2019-03-06T14:02:51.604Z,6.37
2019-03-06T14:05:21.635Z,6.43
2019-03-06T14:07:56.237Z,6.13
2019-03-06T14:10:26.498Z,5.53
2019-03-06T14:12:57.699Z,5.80
2019-03-06T14:15:27.794Z,5.70
2019-03-06T14:17:58.862Z,5.53
2019-03-06T14:20:32.472Z,8.97
2019-03-06T14:23:03.351Z,10.40
2019-03-06T14:25:33.239Z,13.80
2019-03-06T14:28:07.708Z,14.87
2019-03-06T14:30:39.532Z,7.17
2019-03-06T14:33:10.690Z,5.83
2019-03-06T14:35:41.847Z,11.03
2019-03-06T14:38:13.045Z,10.23
2019-03-06T14:40:44.925Z,8.33
2019-03-06T14:43:17.043Z,7.63
2019-03-06T14:45:52.018Z,7.80
2019-03-06T14:48:21.673Z,6.97
2019-03-06T14:50:52.564Z,7.10
2019-03-06T14:53:22.462Z,7.13
2019-03-06T14:55:53.632Z,9.93
2019-03-06T14:58:23.434Z,9.37
2019-03-06T15:00:54.391Z,8.60
2019-03-06T15:03:26.625Z,6.40
2019-03-06T15:05:56.596Z,8.93
2019-03-06T15:08:29.525Z,7.30
2019-03-06T15:11:00.686Z,7.50
2019-03-06T15:13:31.484Z,8.00
2019-03-06T15:16:02.624Z,6.00
2019-03-06T15:18:33.622Z,8.83
2019-03-06T15:21:04.538Z,32.73
2019-03-06T15:23:36.582Z,10.13
2019-03-06T15:26:09.900Z,6.40
2019-03-06T15:28:40.970Z,6.33
2019-03-06T15:31:13.887Z,8.77
2019-03-06T15:33:44.786Z,9.07
2019-03-06T15:36:18.209Z,9.77
2019-03-06T15:38:48.557Z,10.43
2019-03-06T15:41:18.370Z,8.37
2019-03-06T15:43:49.357Z,8.50
2019-03-06T15:46:21.730Z,8.47
2019-03-06T15:48:54.907Z,9.90
2019-03-06T15:51:27.605Z,6.70
2019-03-06T15:53:58.956Z,13.03
2019-03-06T15:56:29.020Z,12.10
2019-03-06T15:58:58.774Z,12.00
2019-03-06T16:01:33.337Z,11.40
2019-03-06T16:04:04.393Z,8.40
2019-03-06T16:06:35.677Z,8.17
2019-03-06T16:09:09.122Z,9.23
2019-03-06T16:11:41.643Z,26.87
2019-03-06T16:14:11.707Z,26.70
2019-03-06T16:16:45.425Z,38.53
2019-03-06T16:19:16.446Z,44.37
2019-03-06T16:21:46.344Z,39.20
2019-03-06T16:24:16.293Z,73.57
2019-03-06T16:26:47.552Z,81.97
2019-03-06T16:29:19.725Z,61.03
2019-03-06T16:31:49.771Z,107.77
2019-03-06T16:34:20.804Z,39.17
2019-03-06T16:36:51.686Z,64.47
2019-03-06T16:39:25.545Z,71.17
2019-03-06T16:41:55.422Z,39.08
2019-03-06T16:44:28.274Z,27.53
2019-03-06T16:47:06.414Z,30.13
2019-03-06T16:49:31.566Z,24.43
2019-03-06T16:52:02.571Z,37.37
2019-03-06T16:54:33.572Z,20.07
2019-03-06T16:57:04.522Z,19.43
2019-03-06T16:59:35.535Z,23.33
2019-03-06T17:02:07.356Z,27.10
2019-03-06T17:04:37.252Z,30.30
2019-03-06T17:07:08.254Z,28.63
2019-03-06T17:09:39.295Z,32.37
2019-03-06T17:12:10.386Z,52.98
2019-03-06T17:14:41.469Z,47.77
2019-03-06T17:17:12.394Z,52.53
2019-03-06T17:19:42.628Z,30.90
2019-03-06T17:22:13.355Z,42.83
2019-03-06T17:24:43.306Z,56.60
2019-03-06T17:27:14.239Z,48.70
2019-03-06T17:29:45.822Z,50.63
2019-03-06T17:32:15.888Z,44.93
2019-03-06T17:34:46.778Z,49.20
2019-03-06T17:37:17.820Z,47.03
2019-03-06T17:39:47.643Z,41.20
2019-03-06T17:42:18.871Z,22.40
2019-03-06T17:44:49.682Z,25.23
2019-03-06T17:47:20.478Z,29.30
2019-03-06T17:49:51.274Z,38.27
2019-03-06T17:52:22.160Z,38.80
2019-03-06T17:54:52.423Z,25.93
2019-03-06T17:57:23.254Z,17.48
2019-03-06T17:59:54.259Z,19.73
2019-03-06T18:02:26.500Z,17.40
2019-03-06T18:04:56.395Z,19.43
2019-03-06T18:07:29.623Z,16.73
2019-03-06T18:10:00.608Z,16.10
2019-03-06T18:12:31.987Z,19.00
2019-03-06T18:15:02.873Z,23.57
2019-03-06T18:17:33.733Z,20.20
2019-03-06T18:20:04.081Z,28.80
2019-03-06T18:22:38.852Z,24.50
2019-03-06T18:25:13.316Z,29.53
2019-03-06T18:27:43.384Z,24.77
2019-03-06T18:30:19.791Z,30.07
2019-03-06T18:32:51.531Z,29.50
2019-03-06T18:35:26.429Z,24.07
2019-03-06T18:37:57.427Z,21.83
2019-03-06T18:40:28.976Z,18.33
2019-03-06T18:43:00.029Z,26.80
2019-03-06T18:45:31.283Z,19.27
2019-03-06T18:48:04.215Z,15.63
2019-03-06T18:50:35.082Z,24.17
2019-03-06T18:53:05.907Z,16.87
2019-03-06T18:55:36.698Z,14.10
2019-03-06T18:58:06.677Z,17.97
2019-03-06T19:00:39.077Z,16.33
2019-03-06T19:03:13.314Z,25.70
2019-03-06T19:05:45.620Z,20.47
2019-03-06T19:08:15.551Z,14.93
2019-03-06T19:10:46.577Z,17.53
2019-03-06T19:13:16.432Z,15.98
2019-03-06T19:15:48.658Z,14.70
2019-03-06T19:18:19.656Z,11.27
2019-03-06T19:20:49.509Z,12.20
2019-03-06T19:23:22.351Z,22.93
2019-03-06T19:25:54.745Z,11.77
2019-03-06T19:28:27.620Z,17.23
2019-03-06T19:30:58.383Z,17.10
2019-03-06T19:33:29.736Z,15.13
2019-03-06T19:36:00.502Z,15.63
2019-03-06T19:38:32.763Z,17.10
2019-03-06T19:41:05.841Z,16.77
2019-03-06T19:43:36.783Z,24.83
2019-03-06T19:46:06.645Z,16.10
2019-03-06T19:48:37.765Z,15.45
2019-03-06T19:51:11.440Z,17.30
2019-03-06T19:53:42.552Z,14.10
2019-03-06T19:56:31.813Z,16.00
2019-03-06T19:59:02.977Z,16.57
2019-03-06T20:01:33.811Z,16.70
2019-03-06T20:04:05.004Z,25.13
2019-03-06T20:06:36.501Z,18.27
2019-03-06T20:09:09.655Z,13.20
2019-03-06T20:11:43.796Z,20.80
2019-03-06T20:14:14.640Z,18.43
2019-03-06T20:16:44.475Z,17.87
2019-03-06T20:19:13.819Z,21.47
2019-03-06T20:21:44.694Z,16.30
2019-03-06T20:24:17.103Z,20.73
2019-03-06T20:26:48.234Z,19.60
2019-03-06T20:29:19.160Z,17.57
2019-03-06T20:31:51.594Z,16.95
2019-03-06T20:34:21.506Z,23.10
2019-03-06T20:36:52.862Z,18.23
2019-03-06T20:39:24.443Z,17.30
2019-03-06T20:41:55.264Z,17.50
2019-03-06T20:44:27.955Z,15.90
2019-03-06T20:47:01.119Z,17.97
2019-03-06T20:49:33.589Z,19.57
2019-03-06T20:52:03.373Z,21.00
2019-03-06T20:54:34.250Z,18.03
2019-03-06T20:57:05.144Z,17.63
2019-03-06T20:59:37.334Z,23.23
2019-03-06T21:02:08.360Z,16.50
2019-03-06T21:04:40.671Z,14.50
2019-03-06T21:07:11.680Z,19.40
2019-03-06T21:09:41.707Z,16.93
2019-03-06T21:12:12.618Z,13.60
2019-03-06T21:14:46.924Z,16.37
2019-03-06T21:17:17.373Z,18.73
2019-03-06T21:19:47.584Z,13.03
2019-03-06T21:22:17.585Z,11.75
2019-03-06T21:24:51.074Z,19.00
2019-03-06T21:27:20.902Z,16.30
2019-03-06T21:29:50.819Z,14.57
2019-03-06T21:32:21.781Z,13.20
2019-03-06T21:34:52.707Z,18.97
2019-03-06T21:37:22.669Z,13.03
2019-03-06T21:39:53.798Z,12.40
2019-03-06T21:42:29.214Z,16.50
2019-03-06T21:45:00.572Z,20.47
2019-03-06T21:47:31.369Z,12.30
2019-03-06T21:50:02.347Z,13.43
2019-03-06T21:52:32.307Z,15.10
2019-03-06T21:55:05.099Z,13.07
2019-03-06T21:57:37.403Z,14.13
2019-03-06T22:00:11.547Z,12.90
2019-03-06T22:02:42.752Z,17.25
2019-03-06T22:05:13.542Z,15.43
2019-03-06T22:07:44.502Z,14.90
2019-03-06T22:10:17.355Z,14.10
2019-03-06T22:12:48.561Z,16.90
2019-03-06T22:15:23.918Z,16.37
2019-03-06T22:17:56.929Z,13.70
2019-03-06T22:20:27.147Z,13.57
2019-03-06T22:22:58.036Z,15.20
2019-03-06T22:25:27.939Z,14.80
2019-03-06T22:27:58.836Z,11.53
2019-03-06T22:30:28.818Z,13.13
2019-03-06T22:32:59.830Z,14.57
2019-03-06T22:35:29.723Z,13.33
2019-03-06T22:38:00.071Z,10.97
2019-03-06T22:40:29.958Z,11.63
2019-03-06T22:43:03.795Z,12.23
2019-03-06T22:45:35.193Z,13.30
2019-03-06T22:48:06.023Z,10.47
2019-03-06T22:50:37.171Z,13.93
2019-03-06T22:53:07.039Z,12.80
2019-03-06T22:55:39.207Z,10.07
2019-03-06T22:58:08.955Z,12.37
2019-03-06T23:00:43.347Z,11.63
2019-03-06T23:03:14.520Z,13.33
2019-03-06T23:05:45.738Z,11.30
2019-03-06T23:08:18.096Z,10.00
2019-03-06T23:10:49.056Z,12.83
2019-03-06T23:13:19.988Z,13.32
2019-03-06T23:15:51.478Z,10.03
2019-03-06T23:18:24.453Z,9.20
2019-03-06T23:20:55.440Z,10.33
2019-03-06T23:23:26.416Z,9.70
2019-03-06T23:25:57.698Z,9.03
2019-03-06T23:28:28.631Z,9.97
2019-03-06T23:30:58.510Z,11.43
2019-03-06T23:33:28.528Z,11.07
2019-03-06T23:35:59.412Z,8.37
2019-03-06T23:38:30.230Z,10.47
2019-03-06T23:41:01.072Z,11.90
2019-03-06T23:43:32.023Z,9.50
2019-03-06T23:46:03.482Z,9.17
2019-03-06T23:48:34.362Z,10.17
2019-03-06T23:51:06.773Z,10.73
2019-03-06T23:53:37.678Z,10.10
2019-03-06T23:56:08.431Z,10.50
2019-03-06T23:58:39.387Z,10.40
